Pine Galaxy — C6TT5 — position and weather

sailwx.info

Track history (hours):
 
Tides and Currents Weather Stations Pressure Air Temp Water Temp Dewpoint Dewpoint Depression Visibility Wind Speed Wind Dir Waves Ship Positions

Pine Galaxy

Last reported at 2016-Sep-12 10:25 UTC. Time now 2016-Sep-28 23:58 UTC.
Position N 31°12' E 121°50'.
Warning: this ship's position is 16 days out of date.

Length 147 m; draft 6.1 m.

Type: Tanker. MMSI: 311772000.

Date/timePositionNaut miles runAvg speedWind from/ knotsBaromVisibWave heightAir tempDewpointWater temp
2016-Sep-12 10:25N 31°12' E 121°50'3311.6
2016-Sep-12 07:33N 31°33' E 121°20'1414.1
2016-Sep-12 06:33N 31°43' E 121°08'3511.7
2016-Sep-12 03:32N 32°01' E 120°33'6 2.8
2016-Sep-12 01:32N 31°58' E 120°27'0 0.0
2016-Sep-11 23:31N 31°58' E 120°27'0 0.0
2016-Sep-11 22:31N 31°58' E 120°27'0 0.0
2016-Sep-11 21:31N 31°58' E 120°27'0 0.1
2016-Sep-11 20:31N 31°58' E 120°27'0 0.1
2016-Sep-11 19:31N 31°58' E 120°27'0 0.0
2016-Sep-11 18:25N 31°58' E 120°27'0 0.0
2016-Sep-11 17:25N 31°58' E 120°27'0 0.0
2016-Sep-11 16:31N 31°58' E 120°27'0 0.0
2016-Sep-11 15:31N 31°58' E 120°27'0 0.0
2016-Sep-11 14:31N 31°58' E 120°27'0 0.0
2016-Sep-11 13:32N 31°58' E 120°27'0 0.0
2016-Sep-11 12:31N 31°58' E 120°27'0 0.0
2016-Sep-11 11:31N 31°58' E 120°27'0 0.0
2016-Sep-11 10:31N 31°58' E 120°27'0 0.0
2016-Sep-11 08:31N 31°58' E 120°27'0 0.0
2016-Sep-11 07:31N 31°58' E 120°27'6 1.5
2016-Sep-11 03:28N 32°01' E 120°33'0 0.0
2016-Sep-11 02:22N 32°01' E 120°33'0 0.0
2016-Sep-11 01:16N 32°01' E 120°33'0 0.0
2016-Sep-11 00:29N 32°01' E 120°33'0 0.0
2016-Sep-10 23:22N 32°01' E 120°33'0 0.0
2016-Sep-10 22:29N 32°01' E 120°33'0 0.0
2016-Sep-10 21:05N 32°01' E 120°33'0 0.0
2016-Sep-10 20:22N 32°01' E 120°33'0 0.0
2016-Sep-10 18:16N 32°01' E 120°33'0 0.0
2016-Sep-10 17:28N 32°01' E 120°33'0 0.0
2016-Sep-10 16:28N 32°01' E 120°33'0 0.0
2016-Sep-10 15:28N 32°01' E 120°33'0 0.0
2016-Sep-10 14:22N 32°01' E 120°33'0 0.1
2016-Sep-10 13:23N 32°01' E 120°33'0 0.0
2016-Sep-10 12:22N 32°01' E 120°33'0 0.0
2016-Sep-10 11:29N 32°01' E 120°33'0 0.0
2016-Sep-10 09:23N 32°01' E 120°33'0 0.0
2016-Sep-10 08:28N 32°01' E 120°33'0 0.0
2016-Sep-10 07:29N 32°01' E 120°33'3 3.2
2016-Sep-10 06:32N 32°02' E 120°30'1313.6
2016-Sep-10 05:33N 31°56' E 120°16'1211.9
2016-Sep-10 04:33N 31°58' E 120°01'  
2016-Sep-07 04:33N 32°02' E 119°57'9 9.3
2016-Sep-07 03:33N 31°57' E 120°07'8 8.1
2016-Sep-07 02:34N 31°57' E 120°16'10 9.3
2016-Sep-07 01:32N 32°02' E 120°26'10 9.3
2016-Sep-07 00:28N 31°60' E 120°37'12 9.4
2016-Sep-06 23:10N 31°58' E 120°51'811.8
2016-Sep-06 22:32N 31°51' E 120°54'9 9.1
2016-Sep-06 21:33N 31°46' E 121°03'1111.1
2016-Sep-06 20:33N 31°39' E 121°13'8 8.4
2016-Sep-06 19:33N 31°34' E 121°20'0 0.2
2016-Sep-06 18:32N 31°34' E 121°20'0 0.1
2016-Sep-06 16:32N 31°34' E 121°20'0 0.0
2016-Sep-06 15:32N 31°34' E 121°20'0 0.0
2016-Sep-06 14:32N 31°34' E 121°20'0 0.0
2016-Sep-06 13:12N 31°34' E 121°20'0 0.0
2016-Sep-06 12:17N 31°34' E 121°20'1 0.8
2016-Sep-06 11:24N 31°33' E 121°21'8 9.7
2016-Sep-06 10:33N 31°28' E 121°28'8 8.2
2016-Sep-06 09:34N 31°23' E 121°36'8 7.7
2016-Sep-06 08:33N 31°19' E 121°44'13511.2
2016-Sep-05 20:31N 31°41' E 124°20'2712.9
2016-Sep-05 18:27N 31°54' E 124°47'1212.7
2016-Sep-05 17:29N 31°58' E 125°01'  
Track history (hours):
 
Tides and Currents Weather Stations Pressure Air Temp Water Temp Dewpoint Dewpoint Depression Visibility Wind Speed Wind Dir Waves Ship Positions

Pine Galaxy

Last reported at 2016-Sep-12 10:25 UTC. Time now 2016-Sep-28 23:58 UTC.
Position N 31°12' E 121°50'.
Warning: this ship's position is 16 days out of date.

Length 147 m; draft 6.1 m.

Type: Tanker. MMSI: 311772000.

Date/timePositionNaut miles runAvg speedWind from/ knotsBaromVisibWave heightAir tempDewpointWater temp
2016-Sep-12 10:25N 31°12' E 121°50'3311.6
2016-Sep-12 07:33N 31°33' E 121°20'1414.1
2016-Sep-12 06:33N 31°43' E 121°08'3511.7
2016-Sep-12 03:32N 32°01' E 120°33'6 2.8
2016-Sep-12 01:32N 31°58' E 120°27'0 0.0
2016-Sep-11 23:31N 31°58' E 120°27'0 0.0
2016-Sep-11 22:31N 31°58' E 120°27'0 0.0
2016-Sep-11 21:31N 31°58' E 120°27'0 0.1
2016-Sep-11 20:31N 31°58' E 120°27'0 0.1
2016-Sep-11 19:31N 31°58' E 120°27'0 0.0
2016-Sep-11 18:25N 31°58' E 120°27'0 0.0
2016-Sep-11 17:25N 31°58' E 120°27'0 0.0
2016-Sep-11 16:31N 31°58' E 120°27'0 0.0
2016-Sep-11 15:31N 31°58' E 120°27'0 0.0
2016-Sep-11 14:31N 31°58' E 120°27'0 0.0
2016-Sep-11 13:32N 31°58' E 120°27'0 0.0
2016-Sep-11 12:31N 31°58' E 120°27'0 0.0
2016-Sep-11 11:31N 31°58' E 120°27'0 0.0
2016-Sep-11 10:31N 31°58' E 120°27'0 0.0
2016-Sep-11 08:31N 31°58' E 120°27'0 0.0
2016-Sep-11 07:31N 31°58' E 120°27'6 1.5
2016-Sep-11 03:28N 32°01' E 120°33'0 0.0
2016-Sep-11 02:22N 32°01' E 120°33'0 0.0
2016-Sep-11 01:16N 32°01' E 120°33'0 0.0
2016-Sep-11 00:29N 32°01' E 120°33'0 0.0
2016-Sep-10 23:22N 32°01' E 120°33'0 0.0
2016-Sep-10 22:29N 32°01' E 120°33'0 0.0
2016-Sep-10 21:05N 32°01' E 120°33'0 0.0
2016-Sep-10 20:22N 32°01' E 120°33'0 0.0
2016-Sep-10 18:16N 32°01' E 120°33'0 0.0
2016-Sep-10 17:28N 32°01' E 120°33'0 0.0
2016-Sep-10 16:28N 32°01' E 120°33'0 0.0
2016-Sep-10 15:28N 32°01' E 120°33'0 0.0
2016-Sep-10 14:22N 32°01' E 120°33'0 0.1
2016-Sep-10 13:23N 32°01' E 120°33'0 0.0
2016-Sep-10 12:22N 32°01' E 120°33'0 0.0
2016-Sep-10 11:29N 32°01' E 120°33'0 0.0
2016-Sep-10 09:23N 32°01' E 120°33'0 0.0
2016-Sep-10 08:28N 32°01' E 120°33'0 0.0
2016-Sep-10 07:29N 32°01' E 120°33'3 3.2
2016-Sep-10 06:32N 32°02' E 120°30'1313.6
2016-Sep-10 05:33N 31°56' E 120°16'1211.9
2016-Sep-10 04:33N 31°58' E 120°01'  
2016-Sep-07 04:33N 32°02' E 119°57'9 9.3
2016-Sep-07 03:33N 31°57' E 120°07'8 8.1
2016-Sep-07 02:34N 31°57' E 120°16'10 9.3
2016-Sep-07 01:32N 32°02' E 120°26'10 9.3
2016-Sep-07 00:28N 31°60' E 120°37'12 9.4
2016-Sep-06 23:10N 31°58' E 120°51'811.8
2016-Sep-06 22:32N 31°51' E 120°54'9 9.1
2016-Sep-06 21:33N 31°46' E 121°03'1111.1
2016-Sep-06 20:33N 31°39' E 121°13'8 8.4
2016-Sep-06 19:33N 31°34' E 121°20'0 0.2
2016-Sep-06 18:32N 31°34' E 121°20'0 0.1
2016-Sep-06 16:32N 31°34' E 121°20'0 0.0
2016-Sep-06 15:32N 31°34' E 121°20'0 0.0
2016-Sep-06 14:32N 31°34' E 121°20'0 0.0
2016-Sep-06 13:12N 31°34' E 121°20'0 0.0
2016-Sep-06 12:17N 31°34' E 121°20'1 0.8
2016-Sep-06 11:24N 31°33' E 121°21'8 9.7
2016-Sep-06 10:33N 31°28' E 121°28'8 8.2
2016-Sep-06 09:34N 31°23' E 121°36'8 7.7
2016-Sep-06 08:33N 31°19' E 121°44'13511.2
2016-Sep-05 20:31N 31°41' E 124°20'2712.9
2016-Sep-05 18:27N 31°54' E 124°47'1212.7
2016-Sep-05 17:29N 31°58' E 125°01'  

Dump ship's entire track history